Time;durP1;ratioP1;P1;durP2;ratioP2;P2;SDS_P1;SDS_P2;PMS_P1;PMS_P2;Temp;Humidity;BMP_temperature;BMP_pressure;BME280_temperature;BME280_humidity;BME280_pressure;Samples;Min_cycle;Max_cycle;Signal;HPM_P1;HPM_P2
2021/12/31 00:01:01;;;;;;;4.00;1.75;;;;;;;12.06;96.12;100120.31;5052660;28;20036;-84
2021/12/31 00:03:26;;;;;;;6.88;2.90;;;;;;;12.02;96.16;100120.03;5055438;28;20032;-83
2021/12/31 00:05:51;;;;;;;9.38;2.47;;;;;;;12.20;95.31;100137.91;5055231;28;20060;-84
2021/12/31 00:08:17;;;;;;;6.20;2.15;;;;;;;12.08;95.75;100129.88;5054152;28;20025;-84
2021/12/31 00:10:42;;;;;;;6.03;2.35;;;;;;;12.14;95.02;100128.03;5054659;28;20546;-84
2021/12/31 00:13:08;;;;;;;5.38;2.38;;;;;;;12.10;95.64;100132.38;5054527;28;20043;-84
2021/12/31 00:15:33;;;;;;;5.70;2.97;;;;;;;12.22;95.52;100123.97;5055815;28;20033;-84
2021/12/31 00:17:59;;;;;;;7.90;2.33;;;;;;;12.29;94.84;100124.53;5055461;28;20028;-83
2021/12/31 00:20:25;;;;;;;6.30;1.88;;;;;;;12.06;95.22;100120.31;5055737;28;20035;-85
2021/12/31 00:23:05;;;;;;;4.63;2.03;;;;;;;12.09;95.51;100100.66;5053843;28;20043;-84
2021/12/31 00:28:35;;;;;;;6.47;2.38;;;;;;;12.07;95.03;100122.78;5030850;28;20059;-84
2021/12/31 00:31:01;;;;;;;13.02;2.42;;;;;;;11.98;95.23;100125.19;5055463;28;20036;-83
2021/12/31 00:33:26;;;;;;;4.97;1.60;;;;;;;12.09;95.25;100119.78;5056420;28;20078;-84
2021/12/31 00:35:52;;;;;;;3.97;1.77;;;;;;;11.94;94.73;100113.16;5055942;28;20483;-84
2021/12/31 00:38:17;;;;;;;10.05;3.03;;;;;;;11.98;95.48;100125.19;5054794;28;20269;-84
2021/12/31 00:40:43;;;;;;;5.80;2.08;;;;;;;11.99;94.40;100120.56;5055693;28;20040;-84
2021/12/31 00:43:11;;;;;;;4.88;2.00;;;;;;;12.14;94.21;100117.13;5053942;28;20169;-84
2021/12/31 00:45:39;;;;;;;5.47;2.40;;;;;;;11.94;95.04;100112.34;5056088;28;20054;-84
2021/12/31 00:48:05;;;;;;;4.88;2.22;;;;;;;12.18;93.69;100120.97;5056975;28;20037;-83
2021/12/31 00:50:31;;;;;;;2.92;1.67;;;;;;;12.18;93.90;100107.28;5057365;28;20033;-85
2021/12/31 00:52:56;;;;;;;3.92;2.00;;;;;;;12.08;93.09;100113.47;5058805;28;20028;-83
2021/12/31 00:55:21;;;;;;;3.80;1.75;;;;;;;12.06;93.46;100120.31;5058397;28;20104;-83
2021/12/31 00:57:48;;;;;;;6.15;2.33;;;;;;;12.28;93.12;100111.97;5057021;28;20414;-84
2021/12/31 01:00:15;;;;;;;4.03;1.73;;;;;;;12.20;92.38;100113.31;5055848;28;20024;-83
2021/12/31 01:02:43;;;;;;;3.42;1.80;;;;;;;12.25;92.37;100102.38;5059047;28;20166;-83
2021/12/31 01:05:09;;;;;;;4.70;2.60;;;;;;;12.16;92.10;100114.09;5057288;28;20161;-83
2021/12/31 01:07:35;;;;;;;4.88;2.25;;;;;;;12.20;91.97;100120.69;5057969;28;20025;-84
2021/12/31 01:10:01;;;;;;;5.30;2.38;;;;;;;12.30;92.00;100114.44;5058662;28;20029;-84
2021/12/31 01:12:27;;;;;;;4.85;1.55;;;;;;;12.40;91.73;100117.22;5058406;28;20055;-84
2021/12/31 01:14:57;;;;;;;6.85;1.65;;;;;;;12.36;91.79;100121.56;5057332;28;20488;-83
2021/12/31 01:17:49;;;;;;;7.60;2.20;;;;;;;12.22;90.58;100124.81;5055957;28;20037;-84
2021/12/31 01:20:18;;;;;;;7.15;3.00;;;;;;;12.35;91.41;100128.09;5059215;28;20483;-84
2021/12/31 01:22:44;;;;;;;5.43;2.10;;;;;;;12.36;90.83;100125.13;5056306;28;20033;-83
2021/12/31 01:25:10;;;;;;;6.78;2.25;;;;;;;12.29;91.35;100127.28;5057859;28;20029;-84
2021/12/31 01:27:38;;;;;;;6.20;2.72;;;;;;;12.28;91.50;100133.00;5057360;28;20146;-84
2021/12/31 01:30:05;;;;;;;4.03;1.92;;;;;;;12.32;90.73;100124.03;5055974;28;20111;-84
2021/12/31 01:32:31;;;;;;;6.43;2.58;;;;;;;12.23;91.02;100136.53;5058039;28;20078;-84
2021/12/31 01:34:56;;;;;;;7.70;2.33;;;;;;;12.27;90.88;100121.25;5057400;28;20025;-83
2021/12/31 01:37:22;;;;;;;3.83;1.90;;;;;;;12.30;90.68;100119.91;5058859;28;20029;-84
2021/12/31 01:39:47;;;;;;;3.60;1.55;;;;;;;12.30;90.12;100119.91;5057305;28;20048;-83
2021/12/31 01:42:13;;;;;;;6.28;2.72;;;;;;;12.36;90.14;100116.09;5057387;28;20021;-84
2021/12/31 01:44:47;;;;;;;3.65;2.08;;;;;;;12.34;90.46;100110.06;5057463;28;20071;-84
2021/12/31 01:47:15;;;;;;;4.80;2.23;;;;;;;12.37;90.55;100120.47;5058414;28;20086;-83
2021/12/31 01:49:53;;;;;;;6.18;1.50;;;;;;;12.25;90.63;100107.03;5056322;28;20265;-84
2021/12/31 01:55:40;;;;;;;8.45;1.98;;;;;;;12.18;90.60;100126.44;5055703;28;20071;-84
2021/12/31 01:58:07;;;;;;;5.45;1.70;;;;;;;12.17;89.63;100127.50;5054105;28;20086;-83
2021/12/31 02:00:34;;;;;;;7.45;2.35;;;;;;;12.25;89.12;100107.84;5056589;28;20035;-84
2021/12/31 02:03:01;;;;;;;3.60;1.48;;;;;;;12.15;89.31;100124.22;5052426;28;20037;-83
2021/12/31 02:05:27;;;;;;;4.78;1.58;;;;;;;12.14;89.76;100139.78;5053795;28;20031;-83
2021/12/31 02:07:52;;;;;;;5.15;2.25;;;;;;;12.13;89.68;100120.91;5057896;28;20411;-84
2021/12/31 02:10:20;;;;;;;6.10;2.00;;;;;;;12.22;89.69;100133.00;5057836;28;20028;-83
2021/12/31 02:12:46;;;;;;;4.22;1.85;;;;;;;12.39;89.08;100131.94;5056645;28;20029;-83
2021/12/31 02:15:14;;;;;;;5.38;1.92;;;;;;;12.35;89.42;100128.09;5056277;28;20017;-84
2021/12/31 02:17:40;;;;;;;7.43;1.40;;;;;;;12.34;88.82;100132.78;5055080;28;20017;-83
2021/12/31 02:20:07;;;;;;;2.53;1.40;;;;;;;12.30;88.95;100136.31;5057170;28;20120;-83
2021/12/31 02:22:44;;;;;;;8.15;2.60;;;;;;;12.23;88.89;100128.34;5058171;28;20104;-83
2021/12/31 02:25:09;;;;;;;4.78;1.60;;;;;;;12.31;89.15;100137.94;5055212;28;20024;-84
2021/12/31 02:27:37;;;;;;;3.72;1.63;;;;;;;12.28;86.28;100135.75;5052642;28;20493;-84
2021/12/31 02:30:05;;;;;;;4.03;1.40;;;;;;;12.41;87.47;100129.78;5053174;28;20045;-84
2021/12/31 02:32:30;;;;;;;7.35;1.50;;;;;;;12.36;87.21;100140.69;5053590;28;20106;-83
2021/12/31 02:34:56;;;;;;;3.10;1.35;;;;;;;12.51;88.18;100133.66;5056140;28;20028;-83
2021/12/31 02:37:21;;;;;;;4.25;1.70;;;;;;;12.49;88.35;100137.47;5057095;28;20026;-83
2021/12/31 02:39:47;;;;;;;2.67;1.17;;;;;;;12.41;87.81;100132.50;5054324;28;20365;-82
2021/12/31 02:42:12;;;;;;;6.75;3.25;;;;;;;12.33;89.18;100125.66;5056833;28;20024;-84
2021/12/31 02:44:54;;;;;;;3.53;1.60;;;;;;;12.36;88.14;100135.25;5056236;28;20031;-83
2021/12/31 02:47:19;;;;;;;3.42;1.88;;;;;;;12.36;88.13;100118.84;5056068;28;20033;-83
2021/12/31 02:49:46;;;;;;;4.13;1.52;;;;;;;12.41;88.60;100127.03;5054463;28;20515;-83
2021/12/31 02:52:13;;;;;;;4.50;1.33;;;;;;;12.41;87.52;100127.03;5056151;28;20078;-84
2021/12/31 02:54:43;;;;;;;3.53;1.60;;;;;;;12.34;87.48;100121.00;5056875;28;20133;-84
2021/12/31 02:57:09;;;;;;;5.22;2.03;;;;;;;12.28;87.66;100111.16;5055040;28;20059;-83
2021/12/31 02:59:35;;;;;;;4.85;1.48;;;;;;;12.46;88.58;100112.56;5056264;28;20129;-84
2021/12/31 03:02:03;;;;;;;5.53;1.73;;;;;;;12.39;87.79;100118.28;5055307;28;20028;-84
2021/12/31 03:04:29;;;;;;;7.47;2.25;;;;;;;12.34;87.09;100110.91;5057639;28;20131;-84
2021/12/31 03:06:56;;;;;;;3.80;1.63;;;;;;;12.34;88.02;100110.91;5052519;28;20032;-84
2021/12/31 03:09:24;;;;;;;4.35;1.48;;;;;;;12.28;88.30;100106.50;5055611;28;20060;-84
2021/12/31 03:11:56;;;;;;;4.82;2.15;;;;;;;12.36;87.31;100114.19;5056016;28;20029;-83
2021/12/31 03:14:23;;;;;;;9.25;1.80;;;;;;;12.34;87.77;100112.81;5056557;28;20092;-84
2021/12/31 03:16:48;;;;;;;5.18;1.85;;;;;;;12.34;87.19;100121.84;5056502;28;20131;-84
2021/12/31 03:19:14;;;;;;;8.95;2.30;;;;;;;12.46;86.96;100124.34;5052992;28;20547;-83
2021/12/31 03:21:39;;;;;;;6.00;2.45;;;;;;;12.35;87.24;100117.16;5055201;28;20115;-84
2021/12/31 03:24:05;;;;;;;6.20;1.65;;;;;;;12.49;87.14;100118.31;5052284;28;20123;-83
2021/12/31 03:26:31;;;;;;;2.97;1.58;;;;;;;12.52;87.26;100116.13;5053548;28;20017;-84
2021/12/31 03:28:57;;;;;;;3.30;1.55;;;;;;;12.39;86.99;100112.81;5055979;28;20052;-84
2021/12/31 03:31:23;;;;;;;5.05;1.52;;;;;;;12.43;87.63;100122.13;5052932;28;20036;-83
2021/12/31 03:33:48;;;;;;;3.85;1.23;;;;;;;12.56;86.90;100122.72;5055917;28;20028;-83
2021/12/31 03:36:13;;;;;;;2.60;1.42;;;;;;;12.54;87.03;100113.97;5052107;28;20033;-84
2021/12/31 03:38:39;;;;;;;6.30;1.40;;;;;;;12.41;86.91;100121.56;5056157;28;20033;-83
2021/12/31 03:41:04;;;;;;;4.22;1.30;;;;;;;12.39;86.89;100107.34;5054860;28;20769;-84
2021/12/31 03:43:30;;;;;;;3.97;1.30;;;;;;;12.47;87.12;100112.28;5055298;28;20025;-84
2021/12/31 03:45:55;;;;;;;7.32;1.73;;;;;;;12.32;87.26;100110.34;5055627;28;20563;-83
2021/12/31 03:48:33;;;;;;;3.58;1.77;;;;;;;12.41;86.92;100120.78;5054237;28;20031;-84
2021/12/31 03:50:59;;;;;;;5.13;1.38;;;;;;;12.35;86.21;100111.72;5056269;28;20039;-83
2021/12/31 03:53:24;;;;;;;5.00;1.08;;;;;;;12.45;87.12;100099.97;5055232;28;20025;-83
2021/12/31 03:55:50;;;;;;;3.95;1.55;;;;;;;12.34;86.12;100104.59;5056097;28;20150;-84
2021/12/31 03:58:15;;;;;;;3.28;1.17;;;;;;;12.39;87.01;100104.59;5053627;28;20468;-84
2021/12/31 04:00:41;;;;;;;4.85;1.42;;;;;;;12.31;85.99;100107.84;5055121;28;20044;-84
2021/12/31 04:03:11;;;;;;;2.58;1.20;;;;;;;12.45;86.76;100099.97;5053267;28;20020;-84
2021/12/31 04:05:38;;;;;;;2.95;1.00;;;;;;;12.37;85.91;100098.59;5054604;28;20025;-84
2021/12/31 04:08:06;;;;;;;7.20;1.30;;;;;;;12.37;86.09;100098.59;5053296;28;20470;-84
2021/12/31 04:10:32;;;;;;;7.22;1.00;;;;;;;12.33;86.01;100086.53;5053653;28;20032;-83
2021/12/31 04:12:58;;;;;;;3.35;1.20;;;;;;;12.35;86.95;100087.94;5054361;28;20424;-84
2021/12/31 04:15:23;;;;;;;5.65;1.42;;;;;;;12.41;86.31;100096.97;5053903;28;20048;-83
2021/12/31 04:17:48;;;;;;;6.82;1.85;;;;;;;12.45;85.69;100095.34;5056328;28;20025;-84
2021/12/31 04:20:20;;;;;;;5.00;1.45;;;;;;;12.35;85.22;100084.38;5060047;28;20021;-83
2021/12/31 04:22:53;;;;;;;4.88;1.55;;;;;;;12.42;84.99;100093.16;5060503;28;20024;-83
2021/12/31 04:25:19;;;;;;;5.28;2.47;;;;;;;12.33;85.25;100098.31;5057555;28;20049;-83
2021/12/31 04:27:45;;;;;;;3.42;1.20;;;;;;;12.42;85.31;100092.31;5057859;28;20044;-83
2021/12/31 04:30:10;;;;;;;5.40;1.95;;;;;;;12.37;84.67;100087.66;5056648;28;20044;-84
2021/12/31 04:32:36;;;;;;;3.03;1.08;;;;;;;12.52;86.40;100088.78;5056454;28;20384;-84
2021/12/31 04:35:01;;;;;;;3.40;1.33;;;;;;;12.52;86.19;100088.78;5059681;28;20103;-83
2021/12/31 04:37:27;;;;;;;3.28;1.83;;;;;;;12.60;86.74;100096.47;5057699;28;20087;-83
2021/12/31 04:39:52;;;;;;;3.42;1.23;;;;;;;12.47;84.99;100082.22;5058173;28;20028;-83
2021/12/31 04:42:17;;;;;;;6.03;1.20;;;;;;;12.57;85.80;100086.09;5059996;28;20538;-84
2021/12/31 04:44:43;;;;;;;2.65;1.05;;;;;;;12.54;84.74;100081.13;5058416;28;20021;-84
2021/12/31 04:47:08;;;;;;;3.50;1.10;;;;;;;12.41;84.88;100088.75;5058419;28;20047;-83
2021/12/31 04:49:34;;;;;;;6.60;2.05;;;;;;;12.47;85.61;100082.22;5058551;28;20060;-83
2021/12/31 04:55:21;;;;;;;3.00;0.93;;;;;;;12.37;84.95;100079.44;5058337;28;20042;-83
2021/12/31 04:57:48;;;;;;;4.85;1.23;;;;;;;12.25;85.81;100091.47;5056271;28;20127;-84
2021/12/31 05:00:14;;;;;;;3.42;1.35;;;;;;;12.34;83.81;100075.38;5056460;28;20048;-84
2021/12/31 05:02:40;;;;;;;2.13;0.98;;;;;;;12.31;84.26;100073.16;5059639;28;20029;-85
2021/12/31 05:05:06;;;;;;;7.80;1.33;;;;;;;12.44;85.55;100079.19;5059575;28;20039;-84
2021/12/31 05:07:31;;;;;;;5.30;1.30;;;;;;;12.33;84.92;100075.59;5056515;28;20039;-83
2021/12/31 05:09:56;;;;;;;2.90;1.17;;;;;;;12.40;85.55;100075.38;5059083;28;20468;-83
2021/12/31 05:12:26;;;;;;;4.80;1.67;;;;;;;12.28;84.90;100075.59;5058182;28;20419;-83
2021/12/31 05:14:52;;;;;;;5.43;1.10;;;;;;;12.23;85.20;100071.75;5064105;28;20068;-83
2021/12/31 05:17:17;;;;;;;4.70;1.00;;;;;;;12.29;86.16;100074.50;5058783;28;20474;-83
2021/12/31 05:19:44;;;;;;;5.22;0.98;;;;;;;12.35;84.91;100084.38;5056851;28;20108;-83
2021/12/31 05:22:13;;;;;;;3.17;1.00;;;;;;;12.33;85.05;100076.44;5056216;28;20075;-83
2021/12/31 05:24:39;;;;;;;2.70;1.42;;;;;;;12.32;83.76;100069.34;5056605;28;20028;-84
2021/12/31 05:27:05;;;;;;;3.17;1.15;;;;;;;12.28;84.36;100079.16;5056333;28;20043;-85
2021/12/31 05:29:30;;;;;;;3.50;1.50;;;;;;;12.28;83.57;100061.94;5059409;28;20040;-84
2021/12/31 05:31:56;;;;;;;4.60;1.60;;;;;;;12.22;84.61;100066.56;5056208;28;20488;-83
2021/12/31 05:34:34;;;;;;;6.22;1.48;;;;;;;12.22;84.82;100070.13;5059267;28;20063;-82
2021/12/31 05:36:59;;;;;;;5.63;1.48;;;;;;;12.34;85.45;100066.34;5054760;28;20456;-83
2021/12/31 05:39:25;;;;;;;2.60;1.08;;;;;;;12.33;85.42;100070.13;5058675;28;20032;-83
2021/12/31 05:41:51;;;;;;;3.25;1.30;;;;;;;12.24;85.13;100073.41;5057475;28;20040;-84
2021/12/31 05:44:16;;;;;;;2.20;1.10;;;;;;;12.34;84.55;100060.88;5059327;28;20029;-83
2021/12/31 05:46:45;;;;;;;7.18;1.02;;;;;;;12.34;84.81;100060.88;5057235;28;20503;-83
2021/12/31 05:49:11;;;;;;;2.42;0.93;;;;;;;12.24;84.63;100062.47;5057303;28;20025;-84
2021/12/31 05:51:36;;;;;;;3.50;1.20;;;;;;;12.31;83.70;100056.75;5058188;28;20025;-83
2021/12/31 05:54:01;;;;;;;2.27;0.90;;;;;;;12.25;83.82;100058.66;5055822;28;20473;-84
2021/12/31 05:56:27;;;;;;;3.60;1.20;;;;;;;12.22;83.73;100044.72;5058166;28;20283;-84
2021/12/31 05:58:52;;;;;;;3.53;1.33;;;;;;;12.13;83.74;100060.78;5059296;28;20028;-83
2021/12/31 06:01:18;;;;;;;2.03;1.05;;;;;;;12.16;84.02;100037.59;5056495;28;20025;-84
2021/12/31 06:03:43;;;;;;;2.53;1.10;;;;;;;12.15;83.74;100036.75;5056749;28;20028;-84
2021/12/31 06:06:08;;;;;;;2.78;1.00;;;;;;;12.16;83.61;100043.88;5055649;28;20362;-84
2021/12/31 06:08:33;;;;;;;4.75;1.42;;;;;;;12.13;83.77;100028.00;5057222;28;20557;-83
2021/12/31 06:14:07;;;;;;;7.88;1.55;;;;;;;12.01;84.14;100025.47;5054337;28;20277;-83
2021/12/31 06:16:36;;;;;;;4.55;1.58;;;;;;;11.99;84.64;100017.56;5058002;28;20032;-83
2021/12/31 06:19:04;;;;;;;2.90;1.30;;;;;;;11.97;84.04;100018.91;5055330;28;20034;-84
2021/12/31 06:21:29;;;;;;;1.98;0.90;;;;;;;11.97;84.84;100019.72;5055466;28;20101;-83
2021/12/31 06:23:55;;;;;;;2.17;1.25;;;;;;;12.08;85.32;100030.69;5057248;28;20068;-83
2021/12/31 06:26:20;;;;;;;3.47;1.23;;;;;;;12.08;84.34;100036.16;5055508;28;20036;-83
2021/12/31 06:28:45;;;;;;;9.10;1.52;;;;;;;12.03;84.74;100039.69;5057277;28;20282;-83
2021/12/31 06:31:11;;;;;;;3.60;0.80;;;;;;;12.06;84.41;100052.00;5056210;28;20090;-84
2021/12/31 06:33:36;;;;;;;3.45;1.00;;;;;;;12.04;83.92;100046.78;5053296;28;20269;-83
2021/12/31 06:36:01;;;;;;;7.00;2.00;;;;;;;12.05;84.34;100053.91;5056270;28;20032;-84
2021/12/31 06:38:27;;;;;;;5.45;1.42;;;;;;;12.07;83.99;100056.38;5057265;28;20024;-83
2021/12/31 06:40:52;;;;;;;2.33;0.90;;;;;;;12.05;85.28;100058.53;5056106;28;20020;-84
2021/12/31 06:43:17;;;;;;;2.77;1.27;;;;;;;12.01;84.50;100069.19;5054999;28;20029;-83
2021/12/31 06:45:42;;;;;;;4.38;1.20;;;;;;;11.93;84.52;100059.59;5055834;28;20304;-84
2021/12/31 06:48:08;;;;;;;2.27;1.10;;;;;;;11.83;85.12;100062.28;5056762;28;20098;-83
2021/12/31 06:50:33;;;;;;;3.58;1.15;;;;;;;11.94;85.18;100063.97;5055884;28;20268;-84
2021/12/31 06:53:01;;;;;;;2.00;1.13;;;;;;;11.98;85.49;100058.81;5057740;28;20052;-84
2021/12/31 06:55:26;;;;;;;3.78;1.08;;;;;;;11.81;85.11;100048.91;5057290;28;20036;-83
2021/12/31 06:57:52;;;;;;;5.45;1.20;;;;;;;11.79;85.56;100046.44;5055728;28;20055;-84
2021/12/31 07:00:18;;;;;;;4.20;1.42;;;;;;;11.73;86.30;100043.94;5055858;28;20106;-83
2021/12/31 07:02:43;;;;;;;3.70;1.50;;;;;;;11.70;85.90;100031.63;5055967;28;20473;-83
2021/12/31 07:05:08;;;;;;;6.60;1.30;;;;;;;11.59;86.93;100024.47;5054762;28;20529;-83
2021/12/31 07:07:34;;;;;;;2.97;1.52;;;;;;;11.70;86.52;100030.78;5055916;28;20035;-84
2021/12/31 07:09:59;;;;;;;4.73;1.97;;;;;;;11.69;86.34;100038.19;5055587;28;20039;-84
2021/12/31 07:12:24;;;;;;;2.73;1.27;;;;;;;11.62;86.24;100034.84;5055537;28;20633;-83
2021/12/31 07:14:49;;;;;;;3.50;1.50;;;;;;;11.54;86.41;100044.38;5057385;28;20266;-84
2021/12/31 07:17:15;;;;;;;4.70;1.90;;;;;;;11.65;86.37;100056.19;5054354;28;20085;-83
2021/12/31 07:19:40;;;;;;;4.45;1.58;;;;;;;11.64;86.16;100043.63;5054707;28;20025;-84
2021/12/31 07:22:05;;;;;;;2.83;1.30;;;;;;;11.66;86.65;100053.19;5056095;28;20507;-84
2021/12/31 07:24:31;;;;;;;3.43;1.63;;;;;;;11.67;86.15;100051.28;5055432;28;20025;-83
2021/12/31 07:26:56;;;;;;;3.35;1.52;;;;;;;11.62;86.14;100060.25;5057122;28;20343;-83
2021/12/31 07:29:21;;;;;;;2.63;0.98;;;;;;;11.56;86.27;100056.69;5054901;28;20069;-83
2021/12/31 07:31:47;;;;;;;5.07;1.43;;;;;;;11.62;86.10;100056.72;5055740;28;20032;-84
2021/12/31 07:34:12;;;;;;;3.63;1.73;;;;;;;11.50;86.00;100057.75;5053083;28;20277;-83
2021/12/31 07:36:37;;;;;;;7.72;2.10;;;;;;;11.54;86.12;100061.59;5054897;28;20021;-84
2021/12/31 07:41:47;;;;;;;8.15;2.65;;;;;;;11.48;86.43;100056.34;5054036;28;20077;-83
2021/12/31 07:44:13;;;;;;;4.53;2.07;;;;;;;11.47;86.50;100057.47;5056272;28;20479;-82
2021/12/31 07:46:38;;;;;;;5.20;1.40;;;;;;;11.53;86.09;100057.19;5055332;28;20285;-84
2021/12/31 07:49:03;;;;;;;4.40;1.70;;;;;;;11.49;86.68;100047.91;5055640;28;20511;-83
2021/12/31 07:51:29;;;;;;;6.15;2.35;;;;;;;11.44;86.47;100054.16;5055200;28;20075;-83
2021/12/31 07:53:54;;;;;;;4.85;2.00;;;;;;;11.48;86.62;100054.47;5056196;28;20036;-83
2021/12/31 07:56:20;;;;;;;2.95;1.48;;;;;;;11.43;87.01;100062.63;5059668;28;20051;-84
2021/12/31 07:58:46;;;;;;;3.47;1.70;;;;;;;11.47;86.62;100063.72;5059747;28;20115;-84
2021/12/31 08:01:12;;;;;;;4.25;1.80;;;;;;;11.51;86.40;100073.03;5057547;28;20043;-83
2021/12/31 08:03:37;;;;;;;3.50;1.83;;;;;;;11.41;86.26;100071.06;5058761;28;20025;-83
2021/12/31 08:06:03;;;;;;;7.88;2.88;;;;;;;11.50;86.12;100076.03;5060486;28;20029;-82
2021/12/31 08:08:28;;;;;;;3.50;1.37;;;;;;;11.49;85.84;100071.66;5059216;28;20297;-83
2021/12/31 08:10:53;;;;;;;3.83;1.40;;;;;;;11.50;85.89;100065.94;5058139;28;20266;-83
2021/12/31 08:13:19;;;;;;;4.28;1.90;;;;;;;11.49;85.68;100066.22;5058389;28;20039;-83
2021/12/31 08:15:44;;;;;;;5.15;1.90;;;;;;;11.54;85.67;100050.66;5057541;28;20029;-83
2021/12/31 08:18:10;;;;;;;5.03;1.77;;;;;;;11.53;85.85;100056.41;5058925;28;20487;-83
2021/12/31 08:20:36;;;;;;;4.82;1.77;;;;;;;11.41;86.16;100059.34;5073485;28;20056;-83
2021/12/31 08:23:10;;;;;;;6.90;2.13;;;;;;;11.44;86.43;100059.63;5057136;28;20028;-83
2021/12/31 08:25:36;;;;;;;5.72;1.98;;;;;;;11.40;86.28;100058.50;5058282;28;20025;-82
2021/12/31 08:28:02;;;;;;;7.22;1.70;;;;;;;11.56;85.70;100067.63;5054876;28;20036;-84
2021/12/31 08:30:28;;;;;;;3.83;1.67;;;;;;;11.53;85.66;100059.94;5055611;28;20490;-83
2021/12/31 08:32:53;;;;;;;2.55;1.38;;;;;;;11.49;85.77;100047.91;5052857;28;20365;-84
2021/12/31 08:35:33;;;;;;;5.70;2.20;;;;;;;11.38;86.52;100049.75;5054363;28;20024;-82
2021/12/31 08:37:59;;;;;;;4.30;1.83;;;;;;;11.39;85.74;100042.41;5056121;28;20043;-83
2021/12/31 08:40:25;;;;;;;6.10;2.13;;;;;;;11.32;86.37;100051.63;5054946;28;20024;-83
2021/12/31 08:42:51;;;;;;;3.88;1.27;;;;;;;11.44;86.06;100056.91;5055400;28;20488;-81
2021/12/31 08:45:16;;;;;;;5.50;1.77;;;;;;;11.37;85.49;100036.38;5055227;28;20049;-83
2021/12/31 08:47:41;;;;;;;3.28;1.40;;;;;;;11.32;86.11;100051.63;5056487;28;20032;-84
2021/12/31 08:50:07;;;;;;;4.80;1.93;;;;;;;11.41;86.00;100068.31;5056695;28;20033;-84
2021/12/31 08:52:33;;;;;;;4.57;1.63;;;;;;;11.44;85.92;100061.53;5058691;28;20260;-83
2021/12/31 08:54:58;;;;;;;3.20;1.83;;;;;;;11.41;85.70;100070.25;5056046;28;20029;-83
2021/12/31 08:57:23;;;;;;;4.95;2.85;;;;;;;11.41;85.77;100075.72;5057617;28;20028;-83
2021/12/31 08:59:48;;;;;;;15.35;1.90;;;;;;;11.40;85.79;100060.41;5054719;28;20040;-85
2021/12/31 09:02:14;;;;;;;4.13;1.73;;;;;;;11.37;85.70;100055.50;5056039;28;20464;-83
2021/12/31 09:04:39;;;;;;;3.90;1.35;;;;;;;11.50;85.63;100055.00;5056878;28;20094;-83
2021/12/31 09:07:05;;;;;;;6.35;2.20;;;;;;;11.42;85.54;100055.50;5057135;28;20464;-83
2021/12/31 09:09:30;;;;;;;4.15;1.65;;;;;;;11.43;85.20;100068.09;5057468;28;20028;-82
2021/12/31 09:11:56;;;;;;;4.38;1.35;;;;;;;11.54;84.95;100072.50;5057815;28;20043;-82
2021/12/31 09:14:22;;;;;;;2.83;1.38;;;;;;;11.58;84.67;100078.25;5058108;28;20115;-82
2021/12/31 09:16:47;;;;;;;3.85;1.65;;;;;;;11.50;84.61;100070.56;5055912;28;20459;-83
2021/12/31 09:19:13;;;;;;;5.03;1.33;;;;;;;11.58;84.56;100072.81;5057515;28;20835;-83
2021/12/31 09:21:40;;;;;;;3.92;1.45;;;;;;;11.58;84.53;100093.81;5056745;28;20384;-83
2021/12/31 09:24:05;;;;;;;3.22;1.42;;;;;;;11.54;84.72;100077.16;5056396;28;20025;-84
2021/12/31 09:26:31;;;;;;;7.13;1.98;;;;;;;11.56;84.28;100091.34;5053982;28;20383;-83
2021/12/31 09:28:56;;;;;;;4.07;1.65;;;;;;;11.66;84.00;100064.13;5056132;28;20037;-83
2021/12/31 09:31:21;;;;;;;5.55;1.75;;;;;;;11.58;83.97;100077.44;5056041;28;20032;-83
2021/12/31 09:36:31;;;;;;;;;;;;;;;11.68;84.07;100072.03;5058650;28;20449;-83
2021/12/31 09:38:56;;;;;;;4.30;1.50;;;;;;;11.78;83.78;100093.94;5057099;28;19913;-85
2021/12/31 09:41:21;;;;;;;4.28;2.05;;;;;;;11.81;83.81;100037.97;5054257;28;20777;-84
2021/12/31 09:43:50;;;;;;;3.92;1.40;;;;;;;11.84;82.89;100078.41;5057780;28;20357;-83
2021/12/31 09:46:15;;;;;;;4.68;1.33;;;;;;;11.81;82.84;100078.13;5059084;28;20039;-84
2021/12/31 09:48:41;;;;;;;16.17;4.65;;;;;;;11.73;83.09;100063.88;5053803;28;20020;-83
2021/12/31 09:51:07;;;;;;;3.80;1.75;;;;;;;12.01;83.28;100097.34;5058542;28;20029;-82
2021/12/31 09:53:33;;;;;;;7.80;1.98;;;;;;;11.88;82.64;100075.94;5056942;28;20132;-83
2021/12/31 09:55:59;;;;;;;5.60;2.70;;;;;;;11.73;83.31;100044.78;5071605;28;20115;-84
2021/12/31 09:58:26;;;;;;;4.60;1.10;;;;;;;11.84;83.23;100081.13;5056600;28;20024;-84
2021/12/31 10:00:57;;;;;;;4.97;1.52;;;;;;;11.84;82.72;100069.41;5056530;28;20031;-84
2021/12/31 10:03:30;;;;;;;4.45;1.40;;;;;;;11.71;83.66;100063.34;5053599;28;20032;-84
2021/12/31 10:05:58;;;;;;;5.47;1.87;;;;;;;11.65;84.10;100062.47;5053457;28;20012;-83
2021/12/31 10:08:30;;;;;;;3.92;1.50;;;;;;;11.72;83.28;100073.16;5052078;28;20341;-83
2021/12/31 10:11:18;;;;;;;5.57;1.60;;;;;;;11.74;83.05;100068.25;5057000;28;20039;-84
2021/12/31 10:16:47;;;;;;;4.85;2.15;;;;;;;11.91;83.05;100059.03;5055962;28;20159;-82
2021/12/31 10:19:20;;;;;;;5.25;1.88;;;;;;;11.88;82.37;100065.84;5057602;28;20477;-83
2021/12/31 10:21:50;;;;;;;2.22;0.98;;;;;;;11.97;82.26;100063.44;5057252;28;20021;-83
2021/12/31 10:24:26;;;;;;;4.38;1.63;;;;;;;11.84;81.92;100059.28;5057089;28;20043;-84
2021/12/31 10:26:53;;;;;;;6.93;2.35;;;;;;;11.87;82.34;100068.88;5056491;28;20025;-83
2021/12/31 10:29:19;;;;;;;2.50;1.23;;;;;;;12.08;82.67;100079.88;5056543;28;20492;-84
2021/12/31 10:31:53;;;;;;;5.13;1.30;;;;;;;12.00;81.91;100067.56;5057401;28;20027;-83
2021/12/31 10:34:33;;;;;;;2.92;1.10;;;;;;;12.11;81.29;100074.72;5057795;28;20064;-84
2021/12/31 10:37:12;;;;;;;2.22;1.25;;;;;;;11.99;81.31;100066.72;5057094;28;20036;-83
2021/12/31 10:39:39;;;;;;;5.20;1.35;;;;;;;12.13;81.17;100077.19;5054817;28;20037;-84
2021/12/31 10:42:06;;;;;;;3.72;1.17;;;;;;;12.15;81.46;100075.00;5056863;28;20059;-84
2021/12/31 10:44:52;;;;;;;4.25;1.50;;;;;;;12.10;81.03;100075.78;5057303;28;20474;-84
2021/12/31 10:47:30;;;;;;;4.63;1.08;;;;;;;12.22;81.12;100091.16;5060796;28;20032;-83
2021/12/31 10:50:18;;;;;;;3.33;1.80;;;;;;;12.34;80.74;100080.00;5054550;28;20264;-83
2021/12/31 10:52:59;;;;;;;3.03;1.38;;;;;;;12.36;80.28;100080.56;5053810;28;20475;-83
2021/12/31 10:55:29;;;;;;;2.05;1.35;;;;;;;12.44;79.68;100071.81;5054964;28;20035;-83
2021/12/31 10:58:04;;;;;;;3.05;1.35;;;;;;;12.36;79.75;100061.41;5053039;28;20128;-83
2021/12/31 11:00:33;;;;;;;3.60;1.40;;;;;;;12.45;80.16;100061.69;5054221;28;20033;-83
2021/12/31 11:02:59;;;;;;;4.15;1.70;;;;;;;12.39;80.06;100058.13;5053760;28;20040;-83
2021/12/31 11:05:25;;;;;;;5.38;1.30;;;;;;;12.58;79.56;100071.31;5055849;28;20384;-83
2021/12/31 11:07:52;;;;;;;2.53;1.05;;;;;;;12.59;79.55;100072.97;5054419;28;20487;-83
2021/12/31 11:10:24;;;;;;;5.15;1.00;;;;;;;12.41;79.16;100066.09;5055130;28;20095;-83
2021/12/31 11:12:52;;;;;;;12.40;1.77;;;;;;;12.41;78.98;100066.88;5055426;28;20040;-83
2021/12/31 11:15:17;;;;;;;3.30;1.27;;;;;;;12.59;79.69;100070.22;5055393;28;20021;-83
2021/12/31 11:17:43;;;;;;;3.45;1.52;;;;;;;12.48;78.60;100040.13;5055570;28;20492;-84
2021/12/31 11:20:10;;;;;;;2.30;1.35;;;;;;;12.23;79.58;100038.97;5056273;28;20028;-83
2021/12/31 11:22:36;;;;;;;2.75;1.55;;;;;;;12.29;80.28;100037.06;5053636;28;20035;-83
2021/12/31 11:25:23;;;;;;;3.13;1.17;;;;;;;12.13;79.40;100012.44;5055272;28;20032;-83
2021/12/31 11:27:52;;;;;;;3.28;1.52;;;;;;;12.19;79.98;100021.47;5054465;28;20113;-84
2021/12/31 11:30:34;;;;;;;4.20;1.60;;;;;;;12.32;79.72;100022.88;5053512;28;20840;-82
2021/12/31 11:33:05;;;;;;;3.38;1.42;;;;;;;12.35;79.11;100026.94;5054439;28;20431;-84
2021/12/31 11:35:52;;;;;;;4.80;1.30;;;;;;;12.47;79.39;100027.53;5055979;28;20036;-83
2021/12/31 11:38:23;;;;;;;3.00;1.42;;;;;;;12.35;79.63;100035.97;5054808;28;20082;-83
2021/12/31 11:41:02;;;;;;;4.13;1.77;;;;;;;12.30;79.86;100044.19;5055397;28;20068;-83
2021/12/31 11:43:30;;;;;;;2.65;1.25;;;;;;;12.29;78.78;100041.69;5069296;28;20143;-83
2021/12/31 11:46:19;;;;;;;6.13;1.30;;;;;;;12.26;78.90;100038.41;5055230;28;20029;-83